sensor_id;sensor_type;location;lat;lon;timestamp;P1;durP1;ratioP1;P2;durP2;ratioP2
44508;SDS011;30214;52.246;14.408;2024-03-23T00:54:39;15.02;;;3.08;;
44508;SDS011;30214;52.246;14.408;2024-03-23T00:57:05;13.68;;;2.83;;
44508;SDS011;30214;52.246;14.408;2024-03-23T00:59:33;15.35;;;3.45;;
44508;SDS011;30214;52.246;14.408;2024-03-23T01:01:59;13.98;;;3.00;;
44508;SDS011;30214;52.246;14.408;2024-03-23T01:04:26;13.52;;;2.75;;
44508;SDS011;30214;52.246;14.408;2024-03-23T01:06:52;11.63;;;2.85;;
44508;SDS011;30214;52.246;14.408;2024-03-23T01:09:19;12.07;;;2.97;;
44508;SDS011;30214;52.246;14.408;2024-03-23T01:11:46;17.45;;;3.25;;
44508;SDS011;30214;52.246;14.408;2024-03-23T01:14:14;9.27;;;2.72;;
44508;SDS011;30214;52.246;14.408;2024-03-23T01:16:40;17.55;;;3.67;;
44508;SDS011;30214;52.246;14.408;2024-03-23T01:19:06;8.50;;;2.53;;
44508;SDS011;30214;52.246;14.408;2024-03-23T01:21:32;13.30;;;3.40;;
44508;SDS011;30214;52.246;14.408;2024-03-23T01:24:00;18.85;;;3.50;;
44508;SDS011;30214;52.246;14.408;2024-03-23T01:26:28;12.18;;;2.90;;
44508;SDS011;30214;52.246;14.408;2024-03-23T01:28:56;14.10;;;3.28;;
44508;SDS011;30214;52.246;14.408;2024-03-23T01:31:22;12.57;;;2.90;;
44508;SDS011;30214;52.246;14.408;2024-03-23T01:33:49;10.80;;;2.75;;
44508;SDS011;30214;52.246;14.408;2024-03-23T01:36:15;10.65;;;2.60;;
44508;SDS011;30214;52.246;14.408;2024-03-23T01:38:42;16.23;;;3.33;;
44508;SDS011;30214;52.246;14.408;2024-03-23T01:41:11;14.38;;;3.03;;
44508;SDS011;30214;52.246;14.408;2024-03-23T01:43:38;12.20;;;2.67;;
44508;SDS011;30214;52.246;14.408;2024-03-23T01:46:06;11.82;;;3.13;;
44508;SDS011;30214;52.246;14.408;2024-03-23T01:48:34;11.52;;;2.70;;
44508;SDS011;30214;52.246;14.408;2024-03-23T01:51:00;13.68;;;2.60;;
44508;SDS011;30214;52.246;14.408;2024-03-23T01:53:27;11.73;;;2.63;;
44508;SDS011;30214;52.246;14.408;2024-03-23T01:55:54;13.93;;;2.55;;
44508;SDS011;30214;52.246;14.408;2024-03-23T01:58:22;8.70;;;2.38;;
44508;SDS011;30214;52.246;14.408;2024-03-23T02:00:48;8.88;;;2.38;;
44508;SDS011;30214;52.246;14.408;2024-03-23T02:03:26;18.55;;;2.88;;
44508;SDS011;30214;52.246;14.408;2024-03-23T02:05:53;18.30;;;3.25;;
44508;SDS011;30214;52.246;14.408;2024-03-23T02:08:21;13.10;;;2.70;;
44508;SDS011;30214;52.246;14.408;2024-03-23T02:10:48;11.00;;;2.70;;
44508;SDS011;30214;52.246;14.408;2024-03-23T02:13:15;8.45;;;2.47;;
44508;SDS011;30214;52.246;14.408;2024-03-23T02:15:43;14.35;;;2.92;;
44508;SDS011;30214;52.246;14.408;2024-03-23T02:18:10;15.55;;;3.08;;
44508;SDS011;30214;52.246;14.408;2024-03-23T02:20:37;14.45;;;2.90;;
44508;SDS011;30214;52.246;14.408;2024-03-23T02:23:10;9.70;;;2.58;;
44508;SDS011;30214;52.246;14.408;2024-03-23T02:25:38;15.13;;;2.90;;
44508;SDS011;30214;52.246;14.408;2024-03-23T02:28:05;10.93;;;2.60;;
44508;SDS011;30214;52.246;14.408;2024-03-23T02:30:31;11.95;;;2.47;;
44508;SDS011;30214;52.246;14.408;2024-03-23T02:32:58;14.02;;;2.50;;
44508;SDS011;30214;52.246;14.408;2024-03-23T02:35:24;9.93;;;2.47;;
44508;SDS011;30214;52.246;14.408;2024-03-23T02:37:51;13.23;;;2.63;;
44508;SDS011;30214;52.246;14.408;2024-03-23T02:40:19;9.32;;;2.10;;
44508;SDS011;30214;52.246;14.408;2024-03-23T02:42:46;12.43;;;2.85;;
44508;SDS011;30214;52.246;14.408;2024-03-23T02:45:12;8.95;;;2.05;;
44508;SDS011;30214;52.246;14.408;2024-03-23T02:47:40;11.85;;;2.72;;
44508;SDS011;30214;52.246;14.408;2024-03-23T02:50:06;13.82;;;2.65;;
44508;SDS011;30214;52.246;14.408;2024-03-23T02:52:37;13.50;;;2.30;;
44508;SDS011;30214;52.246;14.408;2024-03-23T02:55:03;9.05;;;2.15;;
44508;SDS011;30214;52.246;14.408;2024-03-23T02:57:33;11.23;;;2.45;;
44508;SDS011;30214;52.246;14.408;2024-03-23T02:59:59;8.73;;;2.83;;
44508;SDS011;30214;52.246;14.408;2024-03-23T03:02:26;11.15;;;2.53;;
44508;SDS011;30214;52.246;14.408;2024-03-23T03:04:52;9.18;;;2.13;;
44508;SDS011;30214;52.246;14.408;2024-03-23T03:07:20;9.40;;;1.90;;
44508;SDS011;30214;52.246;14.408;2024-03-23T03:09:46;14.70;;;2.60;;
44508;SDS011;30214;52.246;14.408;2024-03-23T03:12:13;13.18;;;2.22;;
44508;SDS011;30214;52.246;14.408;2024-03-23T03:14:40;11.43;;;2.20;;
44508;SDS011;30214;52.246;14.408;2024-03-23T03:17:07;12.27;;;3.63;;
44508;SDS011;30214;52.246;14.408;2024-03-23T03:19:34;9.85;;;2.17;;
44508;SDS011;30214;52.246;14.408;2024-03-23T03:22:01;10.55;;;1.80;;
44508;SDS011;30214;52.246;14.408;2024-03-23T03:24:26;12.30;;;2.42;;
44508;SDS011;30214;52.246;14.408;2024-03-23T03:26:54;11.27;;;2.67;;
44508;SDS011;30214;52.246;14.408;2024-03-23T03:29:20;11.27;;;1.92;;
44508;SDS011;30214;52.246;14.408;2024-03-23T03:31:48;11.45;;;1.95;;
44508;SDS011;30214;52.246;14.408;2024-03-23T03:34:15;9.68;;;2.28;;
44508;SDS011;30214;52.246;14.408;2024-03-23T03:36:42;9.20;;;2.00;;
44508;SDS011;30214;52.246;14.408;2024-03-23T03:39:08;14.95;;;2.65;;
44508;SDS011;30214;52.246;14.408;2024-03-23T03:41:35;16.08;;;3.03;;
44508;SDS011;30214;52.246;14.408;2024-03-23T03:44:01;9.82;;;2.00;;
44508;SDS011;30214;52.246;14.408;2024-03-23T03:46:28;9.52;;;2.20;;
44508;SDS011;30214;52.246;14.408;2024-03-23T03:48:55;12.63;;;2.00;;
44508;SDS011;30214;52.246;14.408;2024-03-23T03:51:22;9.88;;;2.13;;
44508;SDS011;30214;52.246;14.408;2024-03-23T03:53:48;9.80;;;2.78;;
44508;SDS011;30214;52.246;14.408;2024-03-23T03:56:15;11.60;;;2.30;;
44508;SDS011;30214;52.246;14.408;2024-03-23T03:58:41;10.02;;;2.15;;
44508;SDS011;30214;52.246;14.408;2024-03-23T04:01:09;9.55;;;2.22;;
44508;SDS011;30214;52.246;14.408;2024-03-23T04:03:35;9.55;;;2.30;;
44508;SDS011;30214;52.246;14.408;2024-03-23T04:06:04;10.27;;;2.38;;
44508;SDS011;30214;52.246;14.408;2024-03-23T04:08:30;16.92;;;2.45;;
44508;SDS011;30214;52.246;14.408;2024-03-23T04:10:57;9.80;;;2.30;;
44508;SDS011;30214;52.246;14.408;2024-03-23T04:13:23;11.25;;;2.60;;
44508;SDS011;30214;52.246;14.408;2024-03-23T04:15:53;11.65;;;2.60;;
44508;SDS011;30214;52.246;14.408;2024-03-23T04:18:20;11.43;;;2.13;;
44508;SDS011;30214;52.246;14.408;2024-03-23T04:20:48;10.32;;;2.00;;
44508;SDS011;30214;52.246;14.408;2024-03-23T04:23:15;15.30;;;2.40;;
44508;SDS011;30214;52.246;14.408;2024-03-23T04:25:42;11.85;;;2.38;;
44508;SDS011;30214;52.246;14.408;2024-03-23T04:28:08;9.25;;;2.10;;
44508;SDS011;30214;52.246;14.408;2024-03-23T04:30:35;18.23;;;3.65;;
44508;SDS011;30214;52.246;14.408;2024-03-23T04:33:02;15.88;;;3.50;;
44508;SDS011;30214;52.246;14.408;2024-03-23T04:35:30;16.58;;;3.60;;
44508;SDS011;30214;52.246;14.408;2024-03-23T04:37:56;17.75;;;4.53;;
44508;SDS011;30214;52.246;14.408;2024-03-23T04:40:25;23.08;;;6.55;;
44508;SDS011;30214;52.246;14.408;2024-03-23T04:42:52;33.13;;;11.95;;
44508;SDS011;30214;52.246;14.408;2024-03-23T04:45:19;28.65;;;10.93;;
44508;SDS011;30214;52.246;14.408;2024-03-23T04:47:48;35.58;;;13.52;;
44508;SDS011;30214;52.246;14.408;2024-03-23T04:50:15;34.22;;;13.50;;
44508;SDS011;30214;52.246;14.408;2024-03-23T04:52:42;55.25;;;21.73;;
44508;SDS011;30214;52.246;14.408;2024-03-23T04:55:09;54.80;;;20.35;;
44508;SDS011;30214;52.246;14.408;2024-03-23T04:57:38;31.02;;;13.18;;
44508;SDS011;30214;52.246;14.408;2024-03-23T05:00:05;30.60;;;12.88;;
44508;SDS011;30214;52.246;14.408;2024-03-23T05:02:42;12.85;;;4.63;;
44508;SDS011;30214;52.246;14.408;2024-03-23T05:05:10;13.02;;;2.92;;
44508;SDS011;30214;52.246;14.408;2024-03-23T05:07:37;15.90;;;2.40;;
44508;SDS011;30214;52.246;14.408;2024-03-23T05:10:04;10.55;;;2.40;;
44508;SDS011;30214;52.246;14.408;2024-03-23T05:12:35;9.98;;;2.45;;
44508;SDS011;30214;52.246;14.408;2024-03-23T05:15:03;12.07;;;2.20;;
44508;SDS011;30214;52.246;14.408;2024-03-23T05:17:30;13.13;;;2.20;;
44508;SDS011;30214;52.246;14.408;2024-03-23T05:19:57;11.25;;;2.10;;
44508;SDS011;30214;52.246;14.408;2024-03-23T05:22:24;8.05;;;2.20;;
44508;SDS011;30214;52.246;14.408;2024-03-23T05:24:50;10.68;;;2.15;;
44508;SDS011;30214;52.246;14.408;2024-03-23T05:27:17;11.30;;;2.53;;
44508;SDS011;30214;52.246;14.408;2024-03-23T05:29:43;8.18;;;2.40;;
44508;SDS011;30214;52.246;14.408;2024-03-23T05:32:11;16.23;;;2.53;;
44508;SDS011;30214;52.246;14.408;2024-03-23T05:34:38;10.13;;;2.50;;
44508;SDS011;30214;52.246;14.408;2024-03-23T05:37:05;16.88;;;2.55;;
44508;SDS011;30214;52.246;14.408;2024-03-23T05:39:31;11.02;;;2.58;;
44508;SDS011;30214;52.246;14.408;2024-03-23T05:41:58;10.50;;;2.38;;
44508;SDS011;30214;52.246;14.408;2024-03-23T05:44:24;9.35;;;2.22;;
44508;SDS011;30214;52.246;14.408;2024-03-23T05:46:51;11.80;;;2.45;;
44508;SDS011;30214;52.246;14.408;2024-03-23T05:49:20;11.65;;;2.08;;
44508;SDS011;30214;52.246;14.408;2024-03-23T05:51:47;9.10;;;2.42;;
44508;SDS011;30214;52.246;14.408;2024-03-23T05:54:13;10.07;;;2.50;;
44508;SDS011;30214;52.246;14.408;2024-03-23T05:56:39;13.40;;;2.92;;
44508;SDS011;30214;52.246;14.408;2024-03-23T05:59:05;13.55;;;2.60;;
44508;SDS011;30214;52.246;14.408;2024-03-23T06:01:32;10.65;;;2.40;;
44508;SDS011;30214;52.246;14.408;2024-03-23T06:03:58;8.80;;;2.28;;
44508;SDS011;30214;52.246;14.408;2024-03-23T06:06:28;10.07;;;2.33;;
44508;SDS011;30214;52.246;14.408;2024-03-23T06:09:09;13.82;;;2.65;;
44508;SDS011;30214;52.246;14.408;2024-03-23T06:11:36;11.32;;;2.72;;
44508;SDS011;30214;52.246;14.408;2024-03-23T06:14:02;10.60;;;2.80;;
44508;SDS011;30214;52.246;14.408;2024-03-23T06:16:30;16.35;;;2.78;;
44508;SDS011;30214;52.246;14.408;2024-03-23T06:18:56;12.35;;;2.53;;
44508;SDS011;30214;52.246;14.408;2024-03-23T06:21:23;13.18;;;2.75;;
44508;SDS011;30214;52.246;14.408;2024-03-23T06:23:52;13.73;;;3.10;;
44508;SDS011;30214;52.246;14.408;2024-03-23T06:26:19;13.85;;;2.80;;
44508;SDS011;30214;52.246;14.408;2024-03-23T06:28:46;15.52;;;2.83;;
44508;SDS011;30214;52.246;14.408;2024-03-23T06:31:13;10.18;;;2.80;;
44508;SDS011;30214;52.246;14.408;2024-03-23T06:33:39;10.20;;;2.45;;
44508;SDS011;30214;52.246;14.408;2024-03-23T06:36:08;9.40;;;2.25;;
44508;SDS011;30214;52.246;14.408;2024-03-23T06:38:35;13.13;;;2.45;;
44508;SDS011;30214;52.246;14.408;2024-03-23T06:41:04;12.20;;;2.70;;
44508;SDS011;30214;52.246;14.408;2024-03-23T06:43:31;11.35;;;2.53;;
44508;SDS011;30214;52.246;14.408;2024-03-23T06:45:58;16.08;;;3.17;;
44508;SDS011;30214;52.246;14.408;2024-03-23T06:48:24;9.20;;;2.17;;
44508;SDS011;30214;52.246;14.408;2024-03-23T06:50:55;17.95;;;3.20;;
44508;SDS011;30214;52.246;14.408;2024-03-23T06:53:27;11.90;;;3.08;;
44508;SDS011;30214;52.246;14.408;2024-03-23T06:55:54;13.83;;;2.27;;
44508;SDS011;30214;52.246;14.408;2024-03-23T06:58:23;13.80;;;3.08;;
44508;SDS011;30214;52.246;14.408;2024-03-23T07:00:54;13.45;;;2.30;;
44508;SDS011;30214;52.246;14.408;2024-03-23T07:03:20;8.95;;;2.42;;
44508;SDS011;30214;52.246;14.408;2024-03-23T07:05:47;15.48;;;2.65;;
44508;SDS011;30214;52.246;14.408;2024-03-23T07:08:15;8.27;;;2.30;;
44508;SDS011;30214;52.246;14.408;2024-03-23T07:10:46;11.68;;;2.60;;
44508;SDS011;30214;52.246;14.408;2024-03-23T07:13:12;13.38;;;2.60;;
44508;SDS011;30214;52.246;14.408;2024-03-23T07:15:41;9.20;;;2.78;;
44508;SDS011;30214;52.246;14.408;2024-03-23T07:18:07;12.23;;;2.85;;
44508;SDS011;30214;52.246;14.408;2024-03-23T07:20:35;14.30;;;2.65;;
44508;SDS011;30214;52.246;14.408;2024-03-23T07:23:01;13.15;;;2.75;;
44508;SDS011;30214;52.246;14.408;2024-03-23T07:25:33;10.50;;;2.63;;
44508;SDS011;30214;52.246;14.408;2024-03-23T07:27:58;14.32;;;3.83;;
44508;SDS011;30214;52.246;14.408;2024-03-23T07:30:26;11.27;;;2.35;;
44508;SDS011;30214;52.246;14.408;2024-03-23T07:32:53;15.20;;;3.80;;
44508;SDS011;30214;52.246;14.408;2024-03-23T07:35:21;14.57;;;3.00;;
44508;SDS011;30214;52.246;14.408;2024-03-23T07:37:47;17.55;;;3.60;;
44508;SDS011;30214;52.246;14.408;2024-03-23T07:40:15;11.57;;;2.65;;
44508;SDS011;30214;52.246;14.408;2024-03-23T07:42:41;13.90;;;3.33;;
44508;SDS011;30214;52.246;14.408;2024-03-23T07:45:14;8.90;;;3.00;;
44508;SDS011;30214;52.246;14.408;2024-03-23T07:47:40;17.58;;;4.00;;
44508;SDS011;30214;52.246;14.408;2024-03-23T07:50:09;13.77;;;3.10;;
44508;SDS011;30214;52.246;14.408;2024-03-23T07:52:36;16.85;;;3.33;;
44508;SDS011;30214;52.246;14.408;2024-03-23T07:55:06;13.48;;;3.30;;
44508;SDS011;30214;52.246;14.408;2024-03-23T07:57:33;12.27;;;3.63;;
44508;SDS011;30214;52.246;14.408;2024-03-23T08:00:00;9.60;;;2.90;;
44508;SDS011;30214;52.246;14.408;2024-03-23T08:02:29;12.85;;;2.63;;
44508;SDS011;30214;52.246;14.408;2024-03-23T08:04:59;15.02;;;3.47;;
44508;SDS011;30214;52.246;14.408;2024-03-23T08:07:30;14.60;;;3.83;;
44508;SDS011;30214;52.246;14.408;2024-03-23T08:09:59;17.30;;;3.78;;
44508;SDS011;30214;52.246;14.408;2024-03-23T08:12:28;16.48;;;3.03;;
44508;SDS011;30214;52.246;14.408;2024-03-23T08:14:55;14.82;;;3.15;;
44508;SDS011;30214;52.246;14.408;2024-03-23T08:17:22;12.05;;;3.00;;
44508;SDS011;30214;52.246;14.408;2024-03-23T08:19:49;14.40;;;2.60;;
44508;SDS011;30214;52.246;14.408;2024-03-23T08:22:20;14.27;;;2.53;;
44508;SDS011;30214;52.246;14.408;2024-03-23T08:24:49;13.40;;;3.05;;
44508;SDS011;30214;52.246;14.408;2024-03-23T08:27:15;14.27;;;3.22;;
44508;SDS011;30214;52.246;14.408;2024-03-23T08:29:45;13.18;;;3.28;;
44508;SDS011;30214;52.246;14.408;2024-03-23T08:32:11;10.65;;;3.35;;
44508;SDS011;30214;52.246;14.408;2024-03-23T08:34:38;12.60;;;2.88;;
44508;SDS011;30214;52.246;14.408;2024-03-23T08:37:07;10.15;;;2.45;;
44508;SDS011;30214;52.246;14.408;2024-03-23T08:39:34;13.45;;;3.03;;
44508;SDS011;30214;52.246;14.408;2024-03-23T08:42:02;11.57;;;3.25;;
44508;SDS011;30214;52.246;14.408;2024-03-23T08:44:29;11.88;;;3.20;;
44508;SDS011;30214;52.246;14.408;2024-03-23T08:46:55;10.27;;;2.75;;
44508;SDS011;30214;52.246;14.408;2024-03-23T08:49:28;11.43;;;2.57;;
44508;SDS011;30214;52.246;14.408;2024-03-23T08:51:57;8.82;;;2.90;;
44508;SDS011;30214;52.246;14.408;2024-03-23T08:54:24;12.98;;;4.07;;
44508;SDS011;30214;52.246;14.408;2024-03-23T08:56:55;8.88;;;2.65;;
44508;SDS011;30214;52.246;14.408;2024-03-23T08:59:27;10.00;;;2.08;;
44508;SDS011;30214;52.246;14.408;2024-03-23T09:01:53;11.52;;;2.60;;
44508;SDS011;30214;52.246;14.408;2024-03-23T09:04:23;7.25;;;2.25;;
44508;SDS011;30214;52.246;14.408;2024-03-23T09:06:49;7.15;;;1.73;;
44508;SDS011;30214;52.246;14.408;2024-03-23T09:09:16;6.97;;;2.33;;
44508;SDS011;30214;52.246;14.408;2024-03-23T09:11:48;7.32;;;1.85;;
44508;SDS011;30214;52.246;14.408;2024-03-23T09:14:15;5.95;;;1.63;;
44508;SDS011;30214;52.246;14.408;2024-03-23T09:16:44;4.60;;;1.63;;
44508;SDS011;30214;52.246;14.408;2024-03-23T09:19:11;7.38;;;2.03;;
44508;SDS011;30214;52.246;14.408;2024-03-23T09:21:40;7.82;;;1.95;;
44508;SDS011;30214;52.246;14.408;2024-03-23T09:24:07;6.40;;;1.75;;
44508;SDS011;30214;52.246;14.408;2024-03-23T09:26:33;8.07;;;2.15;;
44508;SDS011;30214;52.246;14.408;2024-03-23T09:29:01;4.47;;;1.25;;
44508;SDS011;30214;52.246;14.408;2024-03-23T09:31:27;6.20;;;1.65;;
44508;SDS011;30214;52.246;14.408;2024-03-23T09:33:56;7.10;;;1.80;;
44508;SDS011;30214;52.246;14.408;2024-03-23T09:36:22;5.20;;;1.98;;
44508;SDS011;30214;52.246;14.408;2024-03-23T09:38:52;6.75;;;1.58;;
44508;SDS011;30214;52.246;14.408;2024-03-23T09:41:21;6.18;;;1.35;;
44508;SDS011;30214;52.246;14.408;2024-03-23T09:43:48;4.95;;;1.55;;
44508;SDS011;30214;52.246;14.408;2024-03-23T09:46:18;6.00;;;1.77;;
44508;SDS011;30214;52.246;14.408;2024-03-23T09:48:46;4.60;;;1.23;;
44508;SDS011;30214;52.246;14.408;2024-03-23T09:51:14;4.13;;;1.17;;
44508;SDS011;30214;52.246;14.408;2024-03-23T09:53:41;4.28;;;1.20;;
44508;SDS011;30214;52.246;14.408;2024-03-23T09:56:08;5.03;;;1.55;;
44508;SDS011;30214;52.246;14.408;2024-03-23T09:58:35;3.20;;;1.27;;
44508;SDS011;30214;52.246;14.408;2024-03-23T10:01:04;4.75;;;1.20;;
44508;SDS011;30214;52.246;14.408;2024-03-23T10:03:42;3.63;;;1.17;;
44508;SDS011;30214;52.246;14.408;2024-03-23T10:06:08;3.45;;;1.10;;
44508;SDS011;30214;52.246;14.408;2024-03-23T10:08:37;9.77;;;1.45;;
44508;SDS011;30214;52.246;14.408;2024-03-23T10:11:12;7.55;;;2.13;;
44508;SDS011;30214;52.246;14.408;2024-03-23T10:13:41;3.47;;;1.30;;
44508;SDS011;30214;52.246;14.408;2024-03-23T10:16:08;2.63;;;1.10;;
44508;SDS011;30214;52.246;14.408;2024-03-23T10:18:39;3.55;;;1.10;;
44508;SDS011;30214;52.246;14.408;2024-03-23T10:21:09;6.07;;;1.13;;
44508;SDS011;30214;52.246;14.408;2024-03-23T10:23:38;5.72;;;1.33;;
44508;SDS011;30214;52.246;14.408;2024-03-23T10:26:13;3.35;;;1.00;;
44508;SDS011;30214;52.246;14.408;2024-03-23T10:28:55;4.35;;;1.00;;
44508;SDS011;30214;52.246;14.408;2024-03-23T10:31:26;2.90;;;0.88;;
44508;SDS011;30214;52.246;14.408;2024-03-23T10:33:54;2.67;;;0.80;;
44508;SDS011;30214;52.246;14.408;2024-03-23T10:36:20;3.45;;;1.15;;
44508;SDS011;30214;52.246;14.408;2024-03-23T10:38:53;3.67;;;1.00;;
44508;SDS011;30214;52.246;14.408;2024-03-23T10:41:20;3.90;;;0.82;;
44508;SDS011;30214;52.246;14.408;2024-03-23T10:43:47;3.33;;;0.90;;
44508;SDS011;30214;52.246;14.408;2024-03-23T10:46:14;1.35;;;0.80;;
44508;SDS011;30214;52.246;14.408;2024-03-23T10:48:42;4.18;;;1.10;;
44508;SDS011;30214;52.246;14.408;2024-03-23T10:51:08;3.08;;;0.85;;
44508;SDS011;30214;52.246;14.408;2024-03-23T10:53:37;1.42;;;0.82;;
44508;SDS011;30214;52.246;14.408;2024-03-23T10:56:08;3.55;;;0.88;;
44508;SDS011;30214;52.246;14.408;2024-03-23T11:01:04;1.67;;;0.70;;
44508;SDS011;30214;52.246;14.408;2024-03-23T11:03:39;7.70;;;2.63;;
44508;SDS011;30214;52.246;14.408;2024-03-23T11:06:10;4.03;;;1.42;;
44508;SDS011;30214;52.246;14.408;2024-03-23T11:08:40;4.70;;;2.03;;
44508;SDS011;30214;52.246;14.408;2024-03-23T11:13:59;2.95;;;1.05;;
44508;SDS011;30214;52.246;14.408;2024-03-23T11:16:26;4.13;;;1.17;;
44508;SDS011;30214;52.246;14.408;2024-03-23T11:21:59;3.05;;;1.17;;
44508;SDS011;30214;52.246;14.408;2024-03-23T11:24:34;2.55;;;0.90;;
44508;SDS011;30214;52.246;14.408;2024-03-23T11:27:06;2.70;;;0.98;;
44508;SDS011;30214;52.246;14.408;2024-03-23T11:29:42;3.20;;;1.38;;
44508;SDS011;30214;52.246;14.408;2024-03-23T11:32:09;3.28;;;0.90;;
44508;SDS011;30214;52.246;14.408;2024-03-23T11:34:38;4.13;;;1.40;;
44508;SDS011;30214;52.246;14.408;2024-03-23T11:37:04;2.55;;;1.08;;
44508;SDS011;30214;52.246;14.408;2024-03-23T11:39:35;3.25;;;1.58;;
44508;SDS011;30214;52.246;14.408;2024-03-23T11:42:04;2.35;;;1.05;;
44508;SDS011;30214;52.246;14.408;2024-03-23T11:44:33;2.25;;;0.80;;
44508;SDS011;30214;52.246;14.408;2024-03-23T11:47:07;2.58;;;0.80;;
44508;SDS011;30214;52.246;14.408;2024-03-23T11:49:36;4.72;;;1.50;;
44508;SDS011;30214;52.246;14.408;2024-03-23T11:52:06;2.55;;;0.88;;
44508;SDS011;30214;52.246;14.408;2024-03-23T11:54:33;1.77;;;0.80;;
44508;SDS011;30214;52.246;14.408;2024-03-23T11:57:00;7.22;;;1.15;;
44508;SDS011;30214;52.246;14.408;2024-03-23T11:59:34;3.38;;;0.80;;
44508;SDS011;30214;52.246;14.408;2024-03-23T12:02:05;3.20;;;0.90;;
44508;SDS011;30214;52.246;14.408;2024-03-23T12:04:32;2.15;;;0.75;;
44508;SDS011;30214;52.246;14.408;2024-03-23T12:07:11;3.85;;;1.33;;
44508;SDS011;30214;52.246;14.408;2024-03-23T12:09:39;3.63;;;1.00;;
44508;SDS011;30214;52.246;14.408;2024-03-23T12:12:07;4.60;;;1.70;;
44508;SDS011;30214;52.246;14.408;2024-03-23T12:14:36;2.28;;;1.00;;
44508;SDS011;30214;52.246;14.408;2024-03-23T12:17:10;1.95;;;1.00;;
44508;SDS011;30214;52.246;14.408;2024-03-23T12:19:41;2.47;;;1.30;;
44508;SDS011;30214;52.246;14.408;2024-03-23T12:22:10;2.67;;;1.38;;
44508;SDS011;30214;52.246;14.408;2024-03-23T12:24:37;2.08;;;0.93;;
44508;SDS011;30214;52.246;14.408;2024-03-23T12:27:10;5.13;;;1.10;;
44508;SDS011;30214;52.246;14.408;2024-03-23T12:29:38;4.35;;;1.30;;
44508;SDS011;30214;52.246;14.408;2024-03-23T12:32:09;3.08;;;1.20;;
44508;SDS011;30214;52.246;14.408;2024-03-23T12:34:36;4.45;;;1.35;;
44508;SDS011;30214;52.246;14.408;2024-03-23T12:37:02;3.80;;;1.20;;
44508;SDS011;30214;52.246;14.408;2024-03-23T12:39:31;3.42;;;1.17;;
44508;SDS011;30214;52.246;14.408;2024-03-23T12:42:00;3.35;;;1.20;;
44508;SDS011;30214;52.246;14.408;2024-03-23T12:44:33;5.78;;;1.60;;
44508;SDS011;30214;52.246;14.408;2024-03-23T12:47:00;6.95;;;1.60;;
44508;SDS011;30214;52.246;14.408;2024-03-23T12:49:33;12.50;;;1.70;;
44508;SDS011;30214;52.246;14.408;2024-03-23T12:52:02;4.28;;;1.20;;
44508;SDS011;30214;52.246;14.408;2024-03-23T12:54:33;5.85;;;1.38;;
44508;SDS011;30214;52.246;14.408;2024-03-23T12:57:02;5.07;;;1.30;;
44508;SDS011;30214;52.246;14.408;2024-03-23T12:59:30;6.05;;;1.30;;
44508;SDS011;30214;52.246;14.408;2024-03-23T13:02:00;4.25;;;1.20;;
44508;SDS011;30214;52.246;14.408;2024-03-23T13:06:58;4.78;;;1.50;;
44508;SDS011;30214;52.246;14.408;2024-03-23T13:09:30;3.92;;;1.20;;
44508;SDS011;30214;52.246;14.408;2024-03-23T13:11:56;4.75;;;1.27;;
44508;SDS011;30214;52.246;14.408;2024-03-23T13:14:23;4.03;;;1.10;;
44508;SDS011;30214;52.246;14.408;2024-03-23T13:16:49;6.57;;;1.20;;
44508;SDS011;30214;52.246;14.408;2024-03-23T13:19:18;4.68;;;1.35;;
44508;SDS011;30214;52.246;14.408;2024-03-23T13:21:46;5.38;;;1.48;;
44508;SDS011;30214;52.246;14.408;2024-03-23T13:24:13;4.10;;;1.20;;
44508;SDS011;30214;52.246;14.408;2024-03-23T13:26:40;5.25;;;1.80;;
44508;SDS011;30214;52.246;14.408;2024-03-23T13:29:10;6.35;;;1.55;;
44508;SDS011;30214;52.246;14.408;2024-03-23T13:31:36;6.10;;;1.15;;
44508;SDS011;30214;52.246;14.408;2024-03-23T13:34:06;7.05;;;1.58;;
44508;SDS011;30214;52.246;14.408;2024-03-23T13:36:43;21.33;;;12.43;;
44508;SDS011;30214;52.246;14.408;2024-03-23T13:39:14;10.73;;;7.13;;
44508;SDS011;30214;52.246;14.408;2024-03-23T13:41:41;8.43;;;2.30;;
44508;SDS011;30214;52.246;14.408;2024-03-23T13:44:09;6.90;;;4.32;;
44508;SDS011;30214;52.246;14.408;2024-03-23T13:46:38;8.52;;;3.42;;
44508;SDS011;30214;52.246;14.408;2024-03-23T13:49:04;8.02;;;2.72;;
44508;SDS011;30214;52.246;14.408;2024-03-23T13:51:31;6.38;;;1.85;;
44508;SDS011;30214;52.246;14.408;2024-03-23T13:54:02;14.82;;;7.78;;
44508;SDS011;30214;52.246;14.408;2024-03-23T13:56:29;17.77;;;10.27;;
44508;SDS011;30214;52.246;14.408;2024-03-23T13:58:58;6.43;;;2.20;;
44508;SDS011;30214;52.246;14.408;2024-03-23T14:01:27;6.65;;;2.33;;
44508;SDS011;30214;52.246;14.408;2024-03-23T14:03:54;8.18;;;2.33;;
44508;SDS011;30214;52.246;14.408;2024-03-23T14:06:27;6.22;;;2.17;;
44508;SDS011;30214;52.246;14.408;2024-03-23T14:09:01;6.35;;;1.67;;
44508;SDS011;30214;52.246;14.408;2024-03-23T14:11:31;9.95;;;2.10;;
44508;SDS011;30214;52.246;14.408;2024-03-23T14:14:09;8.20;;;2.20;;
44508;SDS011;30214;52.246;14.408;2024-03-23T14:16:57;14.10;;;4.47;;
44508;SDS011;30214;52.246;14.408;2024-03-23T14:19:38;11.77;;;3.58;;
44508;SDS011;30214;52.246;14.408;2024-03-23T14:22:12;7.38;;;2.00;;
44508;SDS011;30214;52.246;14.408;2024-03-23T14:27:34;7.22;;;1.75;;
44508;SDS011;30214;52.246;14.408;2024-03-23T14:30:26;9.13;;;1.60;;
44508;SDS011;30214;52.246;14.408;2024-03-23T14:33:08;9.50;;;2.20;;
44508;SDS011;30214;52.246;14.408;2024-03-23T14:35:43;9.00;;;2.42;;
44508;SDS011;30214;52.246;14.408;2024-03-23T14:38:33;13.20;;;3.15;;
44508;SDS011;30214;52.246;14.408;2024-03-23T14:45:00;10.15;;;1.40;;
44508;SDS011;30214;52.246;14.408;2024-03-23T14:47:38;7.63;;;1.80;;
44508;SDS011;30214;52.246;14.408;2024-03-23T14:50:14;9.43;;;2.17;;
44508;SDS011;30214;52.246;14.408;2024-03-23T14:52:47;7.63;;;1.45;;
44508;SDS011;30214;52.246;14.408;2024-03-23T14:55:22;9.07;;;1.70;;
44508;SDS011;30214;52.246;14.408;2024-03-23T14:57:57;5.50;;;1.50;;
44508;SDS011;30214;52.246;14.408;2024-03-23T15:00:39;7.90;;;1.80;;
44508;SDS011;30214;52.246;14.408;2024-03-23T15:07:32;9.80;;;1.80;;
44508;SDS011;30214;52.246;14.408;2024-03-23T15:10:05;10.15;;;1.85;;
44508;SDS011;30214;52.246;14.408;2024-03-23T15:40:54;10.95;;;2.45;;
44508;SDS011;30214;52.246;14.408;2024-03-23T15:44:09;8.02;;;2.00;;
44508;SDS011;30214;52.246;14.408;2024-03-23T16:27:46;14.32;;;2.25;;
44508;SDS011;30214;52.246;14.408;2024-03-23T16:30:35;10.32;;;2.30;;
44508;SDS011;30214;52.246;14.408;2024-03-23T16:33:02;11.98;;;2.72;;
44508;SDS011;30214;52.246;14.408;2024-03-23T16:35:32;6.50;;;2.00;;
44508;SDS011;30214;52.246;14.408;2024-03-23T16:37:59;5.78;;;2.10;;
44508;SDS011;30214;52.246;14.408;2024-03-23T16:40:29;9.07;;;2.17;;
44508;SDS011;30214;52.246;14.408;2024-03-23T16:42:57;12.90;;;3.17;;
44508;SDS011;30214;52.246;14.408;2024-03-23T16:45:25;11.70;;;2.83;;
44508;SDS011;30214;52.246;14.408;2024-03-23T16:47:51;8.88;;;2.67;;
44508;SDS011;30214;52.246;14.408;2024-03-23T16:50:25;6.93;;;2.40;;
44508;SDS011;30214;52.246;14.408;2024-03-23T16:52:59;6.38;;;2.10;;
44508;SDS011;30214;52.246;14.408;2024-03-23T16:55:34;10.25;;;2.70;;
44508;SDS011;30214;52.246;14.408;2024-03-23T16:58:18;6.40;;;1.77;;
44508;SDS011;30214;52.246;14.408;2024-03-23T17:01:04;6.10;;;2.40;;
44508;SDS011;30214;52.246;14.408;2024-03-23T17:03:34;5.97;;;2.22;;